createdAt,value
2019-04-06T00:00:18.027Z,31.00
2019-04-06T00:01:18.010Z,30.80
2019-04-06T00:02:18.028Z,31.00
2019-04-06T00:03:17.974Z,30.90
2019-04-06T00:04:17.975Z,29.90
2019-04-06T00:05:17.933Z,30.30
2019-04-06T00:06:17.913Z,30.60
2019-04-06T00:07:17.900Z,29.10
2019-04-06T00:08:17.879Z,30.20
2019-04-06T00:09:17.857Z,28.60
2019-04-06T00:10:17.841Z,28.30
2019-04-06T00:11:17.820Z,29.30
2019-04-06T00:12:17.803Z,28.50
2019-04-06T00:13:17.786Z,29.60
2019-04-06T00:14:17.763Z,29.10
2019-04-06T00:15:17.748Z,29.50
2019-04-06T00:16:17.731Z,28.90
2019-04-06T00:17:17.710Z,28.60
2019-04-06T00:18:17.693Z,28.40
2019-04-06T00:19:17.685Z,29.60
2019-04-06T00:20:17.656Z,28.70
2019-04-06T00:21:17.655Z,29.90
2019-04-06T00:22:17.619Z,29.50
2019-04-06T00:23:17.598Z,28.70
2019-04-06T00:24:17.579Z,29.00
2019-04-06T00:25:17.565Z,28.70
2019-04-06T00:26:17.547Z,29.20
2019-04-06T00:27:17.527Z,29.70
2019-04-06T00:28:17.512Z,29.20
2019-04-06T00:29:17.521Z,28.60
2019-04-06T00:30:17.472Z,29.40
2019-04-06T00:31:17.452Z,29.80
2019-04-06T00:32:17.431Z,28.40
2019-04-06T00:33:17.411Z,29.20
2019-04-06T00:34:17.391Z,27.80
2019-04-06T00:35:17.639Z,27.80
2019-04-06T00:36:17.356Z,28.50
2019-04-06T00:37:17.384Z,28.50
2019-04-06T00:38:17.321Z,29.40
2019-04-06T00:39:17.303Z,29.00
2019-04-06T00:40:17.283Z,28.70
2019-04-06T00:41:17.271Z,28.60
2019-04-06T00:42:17.244Z,27.20
2019-04-06T00:43:17.239Z,28.00
2019-04-06T00:44:17.208Z,27.70
2019-04-06T00:45:17.187Z,28.60
2019-04-06T00:46:17.173Z,29.00
2019-04-06T00:47:17.152Z,29.00
2019-04-06T00:48:17.131Z,27.60
2019-04-06T00:49:17.116Z,28.50
2019-04-06T00:50:17.094Z,29.30
2019-04-06T00:51:17.076Z,28.50
2019-04-06T00:52:17.057Z,28.00
2019-04-06T00:53:17.041Z,27.60
2019-04-06T00:54:17.275Z,27.80
2019-04-06T00:55:17.001Z,27.70
2019-04-06T00:56:16.980Z,26.90
2019-04-06T00:57:16.963Z,26.70
2019-04-06T00:58:16.948Z,27.00
2019-04-06T00:59:16.935Z,27.50
2019-04-06T01:00:16.907Z,27.50
2019-04-06T01:01:16.891Z,27.10
2019-04-06T01:02:16.870Z,27.70
2019-04-06T01:03:16.855Z,27.50
2019-04-06T01:04:16.831Z,27.20
2019-04-06T01:05:16.815Z,27.40
2019-04-06T01:06:16.872Z,26.60
2019-04-06T01:07:16.775Z,26.00
2019-04-06T01:08:16.757Z,26.30
2019-04-06T01:09:16.739Z,26.40
2019-04-06T01:10:16.719Z,27.00
2019-04-06T01:11:16.699Z,26.60
2019-04-06T01:12:16.680Z,26.90
2019-04-06T01:13:16.663Z,28.00
2019-04-06T01:14:16.676Z,25.90
2019-04-06T01:15:16.636Z,26.20
2019-04-06T01:16:16.609Z,26.70
2019-04-06T01:17:16.593Z,25.70
2019-04-06T01:18:16.567Z,26.10
2019-04-06T01:19:16.550Z,26.20
2019-04-06T01:20:16.537Z,26.70
2019-04-06T01:21:16.570Z,26.70
2019-04-06T01:22:16.497Z,26.40
2019-04-06T01:23:16.477Z,26.40
2019-04-06T01:24:16.456Z,26.30
2019-04-06T01:25:16.451Z,26.90
2019-04-06T01:26:16.414Z,27.10
2019-04-06T01:27:16.396Z,26.40
2019-04-06T01:28:16.389Z,27.60
2019-04-06T01:29:16.364Z,25.50
2019-04-06T01:30:16.342Z,26.60
2019-04-06T01:31:16.326Z,26.60
2019-04-06T01:32:16.311Z,25.80
2019-04-06T01:33:16.294Z,26.50
2019-04-06T01:34:16.266Z,25.90
2019-04-06T01:35:16.251Z,26.30
2019-04-06T01:36:16.229Z,26.00
2019-04-06T01:37:16.215Z,26.10
2019-04-06T01:38:16.191Z,26.80
2019-04-06T01:39:16.182Z,26.20
2019-04-06T01:40:16.153Z,25.30
2019-04-06T01:41:16.141Z,25.70
2019-04-06T01:42:16.115Z,26.10
2019-04-06T01:43:16.097Z,24.90
2019-04-06T01:44:16.278Z,25.70
2019-04-06T01:45:16.080Z,25.70
2019-04-06T01:46:16.362Z,25.10
2019-04-06T01:47:16.024Z,24.70
2019-04-06T01:48:16.000Z,25.90
2019-04-06T01:49:15.985Z,26.40
2019-04-06T01:50:15.963Z,26.90
2019-04-06T01:51:15.950Z,24.90
2019-04-06T01:52:15.928Z,27.10
2019-04-06T01:53:15.904Z,26.10
2019-04-06T01:54:15.887Z,26.60
2019-04-06T01:55:15.868Z,26.30
2019-04-06T01:56:18.642Z,26.20
2019-04-06T01:57:15.831Z,26.60
2019-04-06T01:58:15.810Z,25.90
2019-04-06T01:59:15.795Z,25.70
2019-04-06T02:00:15.772Z,26.10
2019-04-06T02:01:15.758Z,26.10
2019-04-06T02:02:15.735Z,26.00
2019-04-06T02:03:15.716Z,25.20
2019-04-06T02:04:15.706Z,25.70
2019-04-06T02:05:15.817Z,25.30
2019-04-06T02:06:15.665Z,25.90
2019-04-06T02:07:15.639Z,26.10
2019-04-06T02:08:15.623Z,25.20
2019-04-06T02:09:15.636Z,25.40
2019-04-06T02:10:15.696Z,25.40
2019-04-06T02:11:15.565Z,26.40
2019-04-06T02:12:15.557Z,25.80
2019-04-06T02:13:15.523Z,26.10
2019-04-06T02:14:15.509Z,26.40
2019-04-06T02:15:15.485Z,26.10
2019-04-06T02:16:15.494Z,25.80
2019-04-06T02:17:15.450Z,26.60
2019-04-06T02:18:15.426Z,26.80
2019-04-06T02:19:15.411Z,26.10
2019-04-06T02:20:15.391Z,25.50
2019-04-06T02:21:15.367Z,25.80
2019-04-06T02:22:15.355Z,25.20
2019-04-06T02:23:15.329Z,25.70
2019-04-06T02:24:15.316Z,25.10
2019-04-06T02:25:15.360Z,26.10
2019-04-06T02:26:15.275Z,24.90
2019-04-06T02:27:15.257Z,25.50
2019-04-06T02:28:15.237Z,24.10
2019-04-06T02:29:15.220Z,25.10
2019-04-06T02:30:15.200Z,25.60
2019-04-06T02:31:15.187Z,25.40
2019-04-06T02:32:15.159Z,24.80
2019-04-06T02:33:15.154Z,24.40
2019-04-06T02:34:15.128Z,24.80
2019-04-06T02:35:15.106Z,25.00
2019-04-06T02:36:15.219Z,25.20
2019-04-06T02:37:15.064Z,24.80
2019-04-06T02:38:15.076Z,25.80
2019-04-06T02:39:15.030Z,24.60
2019-04-06T02:40:15.010Z,25.80
2019-04-06T02:41:14.984Z,25.00
2019-04-06T02:42:14.973Z,25.20
2019-04-06T02:43:14.949Z,25.30
2019-04-06T02:44:14.932Z,25.70
2019-04-06T02:45:14.916Z,24.00
2019-04-06T02:46:14.899Z,24.80
2019-04-06T02:47:14.877Z,24.60
2019-04-06T02:48:14.874Z,24.40
2019-04-06T02:49:14.861Z,24.70
2019-04-06T02:50:14.813Z,25.60
2019-04-06T02:51:14.802Z,25.30
2019-04-06T02:52:14.825Z,24.60
2019-04-06T02:53:14.752Z,26.30
2019-04-06T02:54:14.733Z,25.10
2019-04-06T02:55:14.714Z,25.20
2019-04-06T02:56:14.806Z,25.20
2019-04-06T02:57:14.679Z,25.80
2019-04-06T02:58:14.658Z,23.90
2019-04-06T02:59:14.645Z,23.70
2019-04-06T03:00:14.618Z,25.00
2019-04-06T03:01:14.601Z,25.00
2019-04-06T03:02:14.578Z,23.90
2019-04-06T03:03:14.555Z,24.90
2019-04-06T03:04:14.537Z,25.70
2019-04-06T03:05:14.515Z,24.80
2019-04-06T03:06:14.501Z,25.00
2019-04-06T03:07:14.480Z,24.50
2019-04-06T03:08:14.462Z,24.00
2019-04-06T03:09:14.448Z,25.50
2019-04-06T03:10:14.427Z,24.90
2019-04-06T03:11:14.403Z,25.80
2019-04-06T03:12:14.385Z,24.90
2019-04-06T03:13:14.367Z,25.30
2019-04-06T03:14:14.364Z,25.40
2019-04-06T03:15:14.330Z,25.40
2019-04-06T03:16:14.302Z,24.70
2019-04-06T03:17:14.283Z,25.10
2019-04-06T03:18:14.271Z,24.10
2019-04-06T03:19:14.321Z,24.40
2019-04-06T03:20:14.280Z,24.20
2019-04-06T03:21:14.211Z,24.80
2019-04-06T03:22:14.219Z,25.80
2019-04-06T03:23:14.168Z,25.00
2019-04-06T03:24:14.157Z,23.60
2019-04-06T03:25:14.130Z,24.50
2019-04-06T03:26:14.515Z,24.20
2019-04-06T03:27:14.238Z,23.80
2019-04-06T03:28:14.067Z,25.20
2019-04-06T03:29:14.056Z,24.30
2019-04-06T03:30:14.038Z,24.50
2019-04-06T03:31:14.218Z,24.70
2019-04-06T03:32:14.013Z,23.70
2019-04-06T03:33:13.974Z,24.50
2019-04-06T03:34:20.237Z,23.60
2019-04-06T03:35:14.556Z,25.00
2019-04-06T03:36:13.924Z,25.60
2019-04-06T03:37:13.979Z,23.80
2019-04-06T03:38:13.876Z,23.90
2019-04-06T03:39:13.865Z,24.50
2019-04-06T03:40:13.835Z,23.60
2019-04-06T03:41:13.835Z,24.10
2019-04-06T03:42:17.426Z,23.30
2019-04-06T03:43:13.772Z,23.60
2019-04-06T03:44:13.750Z,23.40
2019-04-06T03:45:13.919Z,24.30
2019-04-06T03:46:13.717Z,23.70
2019-04-06T03:47:14.159Z,23.10
2019-04-06T03:48:13.677Z,23.70
2019-04-06T03:49:13.654Z,23.70
2019-04-06T03:50:13.638Z,23.40
2019-04-06T03:51:13.612Z,23.40
2019-04-06T03:52:13.599Z,23.10
2019-04-06T03:53:13.734Z,24.60
2019-04-06T03:54:13.561Z,24.60
2019-04-06T03:55:13.539Z,24.80
2019-04-06T03:56:13.517Z,24.60
2019-04-06T03:57:16.443Z,24.60
2019-04-06T03:58:13.489Z,25.30
2019-04-06T03:59:13.460Z,24.50
2019-04-06T04:00:13.441Z,24.80
2019-04-06T04:01:13.420Z,24.90
2019-04-06T04:02:13.401Z,25.50
2019-04-06T04:03:13.380Z,23.60
2019-04-06T04:04:13.356Z,24.40
2019-04-06T04:05:13.340Z,23.90
2019-04-06T04:06:13.322Z,23.70
2019-04-06T04:07:13.297Z,24.10
2019-04-06T04:08:13.282Z,24.30
2019-04-06T04:09:13.262Z,24.40
2019-04-06T04:10:13.243Z,24.00
2019-04-06T04:11:13.220Z,24.30
2019-04-06T04:12:13.203Z,25.50
2019-04-06T04:13:13.185Z,24.60
2019-04-06T04:14:13.160Z,24.60
2019-04-06T04:15:13.140Z,23.90
2019-04-06T04:16:13.127Z,25.50
2019-04-06T04:17:13.102Z,25.10
2019-04-06T04:18:13.117Z,24.90
2019-04-06T04:19:13.068Z,25.30
2019-04-06T04:20:13.040Z,25.10
2019-04-06T04:21:13.428Z,25.20
2019-04-06T04:22:13.002Z,24.70
2019-04-06T04:23:13.059Z,25.00
2019-04-06T04:24:12.961Z,24.30
2019-04-06T04:25:12.943Z,24.40
2019-04-06T04:26:12.923Z,24.40
2019-04-06T04:27:12.902Z,25.20
2019-04-06T04:28:13.005Z,25.30
2019-04-06T04:29:12.877Z,24.70
2019-04-06T04:30:15.244Z,25.20
2019-04-06T04:31:12.886Z,24.40
2019-04-06T04:32:12.806Z,25.10
2019-04-06T04:33:12.968Z,24.90
2019-04-06T04:34:12.768Z,24.70
2019-04-06T04:35:12.860Z,25.40
2019-04-06T04:36:12.726Z,26.10
2019-04-06T04:37:12.706Z,26.10
2019-04-06T04:38:12.695Z,25.40
2019-04-06T04:39:12.664Z,25.90
2019-04-06T04:40:12.647Z,25.90
2019-04-06T04:41:12.623Z,26.60
2019-04-06T04:42:12.609Z,27.10
2019-04-06T04:43:12.592Z,26.20
2019-04-06T04:44:12.562Z,26.70
2019-04-06T04:45:12.544Z,26.00
2019-04-06T04:46:12.528Z,26.10
2019-04-06T04:47:12.644Z,25.30
2019-04-06T04:48:12.495Z,26.70
2019-04-06T04:49:12.463Z,26.30
2019-04-06T04:50:12.544Z,26.70
2019-04-06T04:51:12.426Z,25.70
2019-04-06T04:52:12.403Z,27.00
2019-04-06T04:53:12.434Z,27.00
2019-04-06T04:54:12.505Z,27.70
2019-04-06T04:55:12.343Z,27.20
2019-04-06T04:56:12.322Z,27.40
2019-04-06T04:57:12.306Z,27.40
2019-04-06T04:58:12.492Z,27.40
2019-04-06T04:59:12.268Z,27.50
2019-04-06T05:00:12.248Z,27.50
2019-04-06T05:01:12.225Z,28.60
2019-04-06T05:02:12.205Z,28.00
2019-04-06T05:03:12.183Z,27.40
2019-04-06T05:04:12.162Z,27.00
2019-04-06T05:05:12.148Z,26.10
2019-04-06T05:06:12.123Z,27.50
2019-04-06T05:07:12.103Z,26.60
2019-04-06T05:08:12.087Z,27.60
2019-04-06T05:09:12.067Z,27.70
2019-04-06T05:10:12.047Z,27.70
2019-04-06T05:11:12.095Z,27.10
2019-04-06T05:12:12.030Z,27.60
2019-04-06T05:13:11.988Z,27.30
2019-04-06T05:14:11.972Z,27.30
2019-04-06T05:15:11.949Z,28.60
2019-04-06T05:16:11.927Z,27.70
2019-04-06T05:17:12.091Z,28.20
2019-04-06T05:18:11.887Z,29.30
2019-04-06T05:19:11.871Z,28.70
2019-04-06T05:20:11.843Z,28.80
2019-04-06T05:21:11.832Z,27.90
2019-04-06T05:22:11.841Z,29.20
2019-04-06T05:23:11.791Z,28.00
2019-04-06T05:24:11.767Z,29.60
2019-04-06T05:25:11.764Z,27.90
2019-04-06T05:26:11.728Z,29.10
2019-04-06T05:27:11.707Z,28.50
2019-04-06T05:28:11.824Z,29.50
2019-04-06T05:29:11.670Z,28.40
2019-04-06T05:30:11.653Z,28.60
2019-04-06T05:31:11.740Z,28.20
2019-04-06T05:32:11.614Z,28.60
2019-04-06T05:33:11.590Z,30.00
2019-04-06T05:34:11.573Z,30.10
2019-04-06T05:35:11.690Z,29.00
2019-04-06T05:36:11.534Z,29.30
2019-04-06T05:37:11.511Z,28.80
2019-04-06T05:39:11.477Z,29.20
2019-04-06T05:40:11.456Z,28.50
2019-04-06T05:41:11.436Z,29.80
2019-04-06T05:42:11.418Z,29.10
2019-04-06T05:43:11.407Z,28.50
2019-04-06T05:44:11.374Z,28.30
2019-04-06T05:45:11.354Z,28.80
2019-04-06T05:46:11.336Z,30.30
2019-04-06T05:47:11.323Z,29.70
2019-04-06T05:48:11.296Z,29.40
2019-04-06T05:49:11.278Z,28.30
2019-04-06T05:50:11.258Z,28.60
2019-04-06T05:51:11.351Z,28.90
2019-04-06T05:52:11.216Z,28.50
2019-04-06T05:53:11.202Z,29.10
2019-04-06T05:54:11.180Z,29.10
2019-04-06T05:55:11.161Z,28.60
2019-04-06T05:56:11.145Z,29.90
2019-04-06T05:57:11.129Z,29.80
2019-04-06T05:58:11.145Z,29.50
2019-04-06T05:59:11.085Z,29.40
2019-04-06T06:00:11.280Z,29.40
2019-04-06T06:01:11.370Z,29.50
2019-04-06T06:02:11.029Z,28.40
2019-04-06T06:03:11.424Z,29.60
2019-04-06T06:04:11.490Z,29.90
2019-04-06T06:05:11.264Z,29.50
2019-04-06T06:06:12.532Z,31.00
2019-04-06T06:07:10.932Z,29.70
2019-04-06T06:08:10.918Z,30.40
2019-04-06T06:09:11.135Z,28.90
2019-04-06T06:10:10.877Z,29.00
2019-04-06T06:11:10.851Z,29.40
2019-04-06T06:12:10.838Z,30.00
2019-04-06T06:13:10.913Z,30.40
2019-04-06T06:14:10.792Z,29.50
2019-04-06T06:15:12.192Z,29.40
2019-04-06T06:16:12.106Z,30.20
2019-04-06T06:17:10.738Z,29.10
2019-04-06T06:18:10.720Z,30.90
2019-04-06T06:19:10.702Z,30.00
2019-04-06T06:20:10.681Z,28.70
2019-04-06T06:21:10.664Z,29.80
2019-04-06T06:22:10.642Z,29.60
2019-04-06T06:23:10.628Z,29.70
2019-04-06T06:24:10.610Z,28.40
2019-04-06T06:25:10.589Z,29.80
2019-04-06T06:26:10.572Z,30.20
2019-04-06T06:27:10.552Z,30.60
2019-04-06T06:28:14.954Z,30.00
2019-04-06T06:29:10.520Z,30.10
2019-04-06T06:30:10.504Z,30.00
2019-04-06T06:31:10.485Z,29.90
2019-04-06T06:32:10.459Z,29.90
2019-04-06T06:33:10.440Z,30.00
2019-04-06T06:34:10.506Z,30.10
2019-04-06T06:35:10.404Z,30.20
2019-04-06T06:36:10.389Z,30.70
2019-04-06T06:37:10.363Z,29.90
2019-04-06T06:38:10.570Z,28.90
2019-04-06T06:39:10.360Z,28.70
2019-04-06T06:40:10.313Z,28.60
2019-04-06T06:41:10.296Z,29.00
2019-04-06T06:42:10.272Z,29.00
2019-04-06T06:43:10.256Z,29.60
2019-04-06T06:44:10.242Z,29.00
2019-04-06T06:45:10.230Z,28.40
2019-04-06T06:46:10.202Z,28.90
2019-04-06T06:47:10.196Z,27.90
2019-04-06T06:48:10.168Z,28.90
2019-04-06T06:49:10.152Z,28.40
2019-04-06T06:50:10.139Z,27.90
2019-04-06T06:51:10.113Z,28.80
2019-04-06T06:52:10.101Z,27.70
2019-04-06T06:53:10.085Z,28.30
2019-04-06T06:54:10.072Z,28.30
2019-04-06T06:55:10.061Z,28.50
2019-04-06T06:56:10.045Z,28.50
2019-04-06T06:57:10.020Z,26.80
2019-04-06T06:58:10.002Z,27.30
2019-04-06T06:59:10.184Z,26.80
2019-04-06T07:00:10.168Z,27.70
2019-04-06T07:01:09.958Z,27.70
2019-04-06T07:02:09.933Z,27.50
2019-04-06T07:03:09.920Z,27.90
2019-04-06T07:04:09.908Z,27.90
2019-04-06T07:05:10.007Z,28.20
2019-04-06T07:06:09.877Z,27.50
2019-04-06T07:07:09.860Z,27.90
2019-04-06T07:08:09.847Z,28.10
2019-04-06T07:09:09.842Z,27.60
2019-04-06T07:10:09.817Z,27.30
2019-04-06T07:11:09.938Z,27.70
2019-04-06T07:12:09.789Z,28.30
2019-04-06T07:13:09.772Z,28.10
2019-04-06T07:14:09.802Z,28.20
2019-04-06T07:15:09.745Z,27.70
2019-04-06T07:16:09.737Z,28.40
2019-04-06T07:17:09.740Z,27.70
2019-04-06T07:18:09.701Z,27.40
2019-04-06T07:19:09.685Z,28.20
2019-04-06T07:20:09.671Z,28.80
2019-04-06T07:21:09.656Z,28.50
2019-04-06T07:22:09.691Z,27.70
2019-04-06T07:23:09.632Z,28.40
2019-04-06T07:24:09.622Z,26.90
2019-04-06T07:25:09.600Z,27.60
2019-04-06T07:26:09.581Z,26.80
2019-04-06T07:27:09.644Z,26.40
2019-04-06T07:28:09.555Z,27.70
2019-04-06T07:29:09.543Z,27.30
2019-04-06T07:30:09.529Z,27.60
2019-04-06T07:31:09.513Z,27.30
2019-04-06T07:32:09.500Z,26.50
2019-04-06T07:33:09.495Z,27.30
2019-04-06T07:34:09.483Z,27.60
2019-04-06T07:35:09.459Z,28.00
2019-04-06T07:36:09.446Z,27.90
2019-04-06T07:37:09.432Z,27.90
2019-04-06T07:38:09.497Z,26.80
2019-04-06T07:39:09.424Z,28.00
2019-04-06T07:40:09.392Z,27.40
2019-04-06T07:41:09.432Z,27.90
2019-04-06T07:42:09.365Z,27.90
2019-04-06T07:43:09.561Z,27.70
2019-04-06T07:44:09.335Z,28.10
2019-04-06T07:45:09.319Z,28.60
2019-04-06T07:46:09.433Z,26.70
2019-04-06T07:47:09.297Z,27.50
2019-04-06T07:48:09.279Z,27.00
2019-04-06T07:49:10.366Z,27.20
2019-04-06T07:50:09.256Z,26.70
2019-04-06T07:51:09.240Z,26.20
2019-04-06T07:52:09.226Z,27.40
2019-04-06T07:53:09.215Z,25.80
2019-04-06T07:54:09.356Z,25.90
2019-04-06T07:55:09.185Z,26.20
2019-04-06T07:56:09.174Z,27.30
2019-04-06T07:57:09.169Z,26.70
2019-04-06T07:58:09.147Z,26.80
2019-04-06T07:59:09.398Z,26.50
2019-04-06T08:00:09.123Z,26.10
2019-04-06T08:01:09.368Z,26.30
2019-04-06T08:02:09.107Z,26.40
2019-04-06T08:03:09.087Z,26.00
2019-04-06T08:04:09.085Z,26.70
2019-04-06T08:05:09.105Z,25.90
2019-04-06T08:06:09.058Z,25.50
2019-04-06T08:07:09.048Z,26.40
2019-04-06T08:08:09.043Z,25.70
2019-04-06T08:09:09.027Z,26.10
2019-04-06T08:10:09.018Z,27.20
2019-04-06T08:11:09.174Z,26.40
2019-04-06T08:12:08.998Z,26.30
2019-04-06T08:13:09.013Z,26.80
2019-04-06T08:14:08.977Z,25.70
2019-04-06T08:15:08.965Z,25.70
2019-04-06T08:16:08.958Z,25.30
2019-04-06T08:17:08.945Z,25.10
2019-04-06T08:18:08.965Z,25.50
2019-04-06T08:19:51.462Z,25.50
2019-04-06T08:20:51.455Z,25.70
2019-04-06T08:21:51.440Z,25.60
2019-04-06T08:22:51.437Z,25.50
2019-04-06T08:23:51.424Z,25.70
2019-04-06T08:24:51.423Z,25.20
2019-04-06T08:25:51.405Z,26.20
2019-04-06T08:26:51.396Z,26.00
2019-04-06T08:27:51.388Z,25.70
2019-04-06T08:29:00.336Z,26.00
2019-04-06T08:29:51.369Z,24.10
2019-04-06T08:30:51.363Z,24.90
2019-04-06T08:31:51.354Z,24.00
2019-04-06T08:32:51.343Z,25.30
2019-04-06T08:33:51.342Z,25.50
2019-04-06T08:34:51.423Z,25.10
2019-04-06T08:35:51.425Z,25.60
2019-04-06T08:36:51.316Z,25.20
2019-04-06T08:37:51.470Z,25.30
2019-04-06T08:38:51.300Z,25.20
2019-04-06T08:39:51.318Z,25.30
2019-04-06T08:40:51.275Z,25.20
2019-04-06T08:41:51.262Z,24.90
2019-04-06T08:42:51.254Z,25.20
2019-04-06T08:43:51.498Z,24.70
2019-04-06T08:44:51.236Z,24.50
2019-04-06T08:45:51.221Z,24.70
2019-04-06T08:46:51.222Z,24.60
2019-04-06T08:47:51.260Z,23.80
2019-04-06T08:48:51.224Z,24.40
2019-04-06T08:49:51.186Z,24.00
2019-04-06T08:50:51.413Z,24.60
2019-04-06T08:51:51.168Z,24.60
2019-04-06T08:52:51.183Z,24.50
2019-04-06T08:53:51.146Z,24.10
2019-04-06T08:54:51.136Z,23.50
2019-04-06T08:55:51.155Z,23.90
2019-04-06T08:56:51.116Z,23.00
2019-04-06T08:57:51.217Z,23.00
2019-04-06T08:58:51.215Z,23.50
2019-04-06T08:59:51.352Z,24.00
2019-04-06T09:00:51.102Z,22.90
2019-04-06T09:01:51.071Z,22.60
2019-04-06T09:02:51.058Z,22.90
2019-04-06T09:03:51.051Z,23.40
2019-04-06T09:04:51.041Z,23.00
2019-04-06T09:05:51.214Z,23.00
2019-04-06T09:06:51.023Z,22.90
2019-04-06T09:07:51.248Z,22.70
2019-04-06T09:08:51.122Z,23.70
2019-04-06T09:09:50.995Z,22.30
2019-04-06T09:10:50.990Z,21.70
2019-04-06T09:11:50.979Z,22.30
2019-04-06T09:12:50.965Z,22.60
2019-04-06T09:13:50.955Z,22.90
2019-04-06T09:14:51.044Z,23.10
2019-04-06T09:15:50.935Z,23.40
2019-04-06T09:16:51.107Z,22.30
2019-04-06T09:17:50.917Z,22.70
2019-04-06T09:18:50.907Z,22.40
2019-04-06T09:19:50.896Z,22.70
2019-04-06T09:20:51.041Z,22.10
2019-04-06T09:21:50.878Z,22.70
2019-04-06T09:22:50.871Z,22.50
2019-04-06T09:23:50.859Z,21.90
2019-04-06T09:24:50.851Z,21.40
2019-04-06T09:25:50.842Z,22.20
2019-04-06T09:26:50.836Z,21.10
2019-04-06T09:27:50.827Z,20.70
2019-04-06T09:28:50.810Z,21.70
2019-04-06T09:29:50.907Z,21.70
2019-04-06T09:30:50.794Z,21.80
2019-04-06T09:31:50.779Z,22.00
2019-04-06T09:32:50.772Z,22.20
2019-04-06T09:33:50.954Z,21.10
2019-04-06T09:34:50.767Z,21.60
2019-04-06T09:35:50.743Z,21.30
2019-04-06T09:36:50.791Z,22.20
2019-04-06T09:37:50.876Z,21.70
2019-04-06T09:38:50.831Z,21.40
2019-04-06T09:39:50.708Z,21.50
2019-04-06T09:40:50.948Z,20.60
2019-04-06T09:41:50.691Z,21.40
2019-04-06T09:42:50.679Z,21.20
2019-04-06T09:44:38.664Z,24.20
2019-04-06T09:45:41.295Z,24.60
2019-04-06T09:46:38.969Z,25.70
2019-04-06T09:47:38.639Z,24.70
2019-04-06T09:48:38.627Z,24.00
2019-04-06T09:49:38.623Z,24.20
2019-04-06T09:50:38.664Z,24.90
2019-04-06T09:51:38.599Z,25.00
2019-04-06T09:52:38.641Z,23.70
2019-04-06T09:53:38.582Z,24.50
2019-04-06T09:54:38.769Z,24.00
2019-04-06T09:55:38.575Z,25.00
2019-04-06T09:56:38.561Z,23.70
2019-04-06T09:57:38.554Z,23.10
2019-04-06T09:58:38.790Z,23.70
2019-04-06T09:59:38.708Z,24.80
2019-04-06T10:00:38.732Z,24.10
2019-04-06T10:01:39.458Z,24.20
2019-04-06T10:02:38.515Z,24.10
2019-04-06T10:03:38.682Z,23.70
2019-04-06T10:04:38.705Z,24.00
2019-04-06T10:05:38.625Z,24.10
2019-04-06T10:06:38.636Z,24.90
2019-04-06T10:07:38.742Z,24.80
2019-04-06T10:08:38.514Z,24.80
2019-04-06T10:09:38.469Z,24.00
2019-04-06T10:10:38.460Z,26.00
2019-04-06T10:11:38.458Z,24.30
2019-04-06T10:12:38.453Z,24.20
2019-04-06T10:13:38.760Z,23.60
2019-04-06T10:14:38.438Z,23.50
2019-04-06T10:15:38.436Z,25.10
2019-04-06T10:16:38.436Z,24.60
2019-04-06T10:17:38.427Z,24.70
2019-04-06T10:18:38.419Z,25.50
2019-04-06T10:19:38.680Z,24.30
2019-04-06T10:20:38.408Z,23.70
2019-04-06T10:21:38.402Z,23.30
2019-04-06T10:22:38.567Z,23.60
2019-04-06T10:23:38.394Z,24.00
2019-04-06T10:24:38.406Z,24.70
2019-04-06T10:25:38.491Z,24.10
2019-04-06T10:26:38.380Z,24.60
2019-04-06T10:27:38.375Z,22.80
2019-04-06T10:28:38.373Z,22.80
2019-04-06T10:29:48.308Z,22.80
2019-04-06T10:30:38.362Z,25.10
2019-04-06T10:31:38.587Z,24.90
2019-04-06T10:32:38.353Z,23.70
2019-04-06T10:33:38.346Z,23.40
2019-04-06T10:34:38.440Z,25.30
2019-04-06T10:35:38.348Z,24.40
2019-04-06T10:36:38.345Z,24.00
2019-04-06T10:37:38.334Z,23.10
2019-04-06T10:38:38.624Z,23.50
2019-04-06T10:39:38.328Z,24.00
2019-04-06T10:40:38.337Z,24.90
2019-04-06T10:41:38.390Z,25.30
2019-04-06T10:42:38.321Z,25.40
2019-04-06T10:43:38.316Z,24.80
2019-04-06T10:44:38.323Z,25.00
2019-04-06T10:45:38.314Z,25.80
2019-04-06T10:46:38.521Z,25.90
2019-04-06T10:47:38.305Z,25.20
2019-04-06T10:48:38.301Z,25.20
2019-04-06T10:49:38.307Z,24.40
2019-04-06T10:50:38.461Z,23.80
2019-04-06T10:51:40.655Z,24.50
2019-04-06T10:52:38.296Z,24.20
2019-04-06T10:53:38.289Z,23.50
2019-04-06T10:54:38.286Z,23.30
2019-04-06T10:55:38.283Z,23.30
2019-04-06T10:56:38.278Z,23.90
2019-04-06T10:57:38.277Z,24.20
2019-04-06T10:58:38.280Z,24.10
2019-04-06T10:59:38.275Z,24.40
2019-04-06T11:00:38.513Z,23.20
2019-04-06T11:01:38.456Z,23.30
2019-04-06T11:02:38.270Z,22.50
2019-04-06T11:03:38.265Z,22.40
2019-04-06T11:04:38.306Z,23.40
2019-04-06T11:05:38.494Z,23.40
2019-04-06T11:06:38.262Z,23.20
2019-04-06T11:07:38.290Z,22.90
2019-04-06T11:08:38.507Z,22.90
2019-04-06T11:09:38.254Z,27.20
2019-04-06T11:10:38.248Z,24.90
2019-04-06T11:11:38.412Z,26.10
2019-04-06T11:12:38.246Z,23.20
2019-04-06T11:13:38.242Z,22.40
2019-04-06T11:14:38.244Z,23.30
2019-04-06T11:15:38.391Z,23.30
2019-04-06T11:16:38.242Z,23.50
2019-04-06T11:17:38.242Z,23.10
2019-04-06T11:18:38.408Z,23.20
2019-04-06T11:19:38.234Z,23.10
2019-04-06T11:20:38.230Z,22.10
2019-04-06T11:21:38.274Z,23.40
2019-04-06T11:22:38.230Z,23.30
2019-04-06T11:23:38.229Z,22.90
2019-04-06T11:24:38.224Z,22.80
2019-04-06T11:25:38.226Z,22.40
2019-04-06T11:26:38.474Z,23.60
2019-04-06T11:27:38.225Z,22.00
2019-04-06T11:28:38.331Z,23.70
2019-04-06T11:29:38.487Z,22.40
2019-04-06T11:30:38.530Z,22.50
2019-04-06T11:31:38.214Z,22.90
2019-04-06T11:32:38.208Z,21.50
2019-04-06T11:33:38.210Z,23.00
2019-04-06T11:34:38.252Z,22.70
2019-04-06T11:35:38.208Z,22.20
2019-04-06T11:36:38.203Z,22.50
2019-04-06T11:37:38.203Z,21.50
2019-04-06T11:38:38.198Z,23.10
2019-04-06T11:39:38.199Z,23.50
2019-04-06T11:40:38.198Z,22.80
2019-04-06T11:41:38.194Z,22.30
2019-04-06T11:42:38.293Z,22.50
2019-04-06T11:43:38.195Z,22.60
2019-04-06T11:44:38.271Z,20.40
2019-04-06T11:45:38.368Z,21.10
2019-04-06T11:46:38.183Z,21.60
2019-04-06T11:47:38.187Z,22.80
2019-04-06T11:48:38.189Z,22.60
2019-04-06T11:49:38.306Z,22.50
2019-04-06T11:50:38.181Z,22.50
2019-04-06T11:51:38.178Z,22.60
2019-04-06T11:52:38.353Z,21.50
2019-04-06T11:53:38.385Z,22.80
2019-04-06T11:54:38.175Z,22.40
2019-04-06T11:55:38.375Z,23.50
2019-04-06T11:56:38.282Z,22.10
2019-04-06T11:57:38.435Z,22.40
2019-04-06T11:58:38.165Z,23.20
2019-04-06T11:59:38.172Z,22.50
2019-04-06T12:00:38.165Z,21.80
2019-04-06T12:01:38.168Z,22.00
2019-04-06T12:02:38.163Z,21.20
2019-04-06T12:03:38.163Z,20.10
2019-04-06T12:04:38.163Z,22.10
2019-04-06T12:05:38.160Z,22.30
2019-04-06T12:06:38.411Z,23.60
2019-04-06T12:07:38.390Z,22.20
2019-04-06T12:08:38.362Z,21.00
2019-04-06T12:09:38.157Z,21.70
2019-04-06T12:10:38.155Z,21.90
2019-04-06T12:11:38.158Z,22.70
2019-04-06T12:12:38.357Z,21.90
2019-04-06T12:13:38.153Z,20.70
2019-04-06T12:14:38.149Z,21.20
2019-04-06T12:15:38.168Z,21.00
2019-04-06T12:16:38.151Z,21.00
2019-04-06T12:17:38.149Z,21.50
2019-04-06T12:18:38.448Z,21.10
2019-04-06T12:19:38.143Z,20.90
2019-04-06T12:20:38.305Z,19.60
2019-04-06T12:21:38.366Z,20.80
2019-04-06T12:22:38.154Z,20.60
2019-04-06T12:23:38.334Z,21.40
2019-04-06T12:24:38.145Z,20.90
2019-04-06T12:25:38.140Z,20.70
2019-04-06T12:26:38.373Z,21.60
2019-04-06T12:27:38.423Z,20.90
2019-04-06T12:28:38.140Z,22.30
2019-04-06T12:29:38.302Z,21.70
2019-04-06T12:30:39.179Z,20.80
2019-04-06T12:31:38.139Z,20.80
2019-04-06T12:32:38.138Z,20.90
2019-04-06T12:33:38.136Z,20.60
2019-04-06T12:34:38.178Z,20.90
2019-04-06T12:35:38.415Z,20.90
2019-04-06T12:36:38.135Z,21.00
2019-04-06T12:37:38.135Z,21.50
2019-04-06T12:38:38.141Z,21.20
2019-04-06T12:39:50.969Z,20.80
2019-04-06T12:40:38.132Z,21.00
2019-04-06T12:41:38.340Z,20.60
2019-04-06T12:42:38.603Z,20.70
2019-04-06T12:43:38.131Z,19.60
2019-04-06T12:44:38.445Z,20.20
2019-04-06T12:45:38.128Z,19.90
2019-04-06T12:46:38.393Z,19.80
2019-04-06T12:47:38.334Z,19.70
2019-04-06T12:48:38.126Z,19.40
2019-04-06T12:49:38.123Z,19.80
2019-04-06T12:50:38.126Z,19.30
2019-04-06T12:51:38.470Z,19.40
2019-04-06T12:52:38.177Z,19.80
2019-04-06T12:53:38.221Z,19.90
2019-04-06T12:54:38.126Z,19.40